sensor_id;sensor_type;location;lat;lon;timestamp;P1;durP1;ratioP1;P2;durP2;ratioP2
42420;SDS011;28063;48.140;11.588;2023-07-29T00:01:33;1.38;;;1.27;;
42420;SDS011;28063;48.140;11.588;2023-07-29T00:03:59;1.40;;;1.30;;
42420;SDS011;28063;48.140;11.588;2023-07-29T00:06:26;1.42;;;1.30;;
42420;SDS011;28063;48.140;11.588;2023-07-29T00:08:52;1.63;;;1.27;;
42420;SDS011;28063;48.140;11.588;2023-07-29T00:11:18;1.23;;;1.13;;
42420;SDS011;28063;48.140;11.588;2023-07-29T00:13:44;1.55;;;1.45;;
42420;SDS011;28063;48.140;11.588;2023-07-29T00:16:12;1.48;;;1.38;;
42420;SDS011;28063;48.140;11.588;2023-07-29T00:18:40;1.27;;;1.17;;
42420;SDS011;28063;48.140;11.588;2023-07-29T00:21:06;1.33;;;1.23;;
42420;SDS011;28063;48.140;11.588;2023-07-29T00:23:32;0.98;;;0.98;;
42420;SDS011;28063;48.140;11.588;2023-07-29T00:26:00;1.30;;;1.20;;
42420;SDS011;28063;48.140;11.588;2023-07-29T00:28:26;1.40;;;1.30;;
42420;SDS011;28063;48.140;11.588;2023-07-29T00:30:52;1.50;;;1.40;;
42420;SDS011;28063;48.140;11.588;2023-07-29T00:33:18;1.13;;;1.13;;
42420;SDS011;28063;48.140;11.588;2023-07-29T00:35:45;1.00;;;1.00;;
42420;SDS011;28063;48.140;11.588;2023-07-29T00:38:11;2.05;;;1.50;;
42420;SDS011;28063;48.140;11.588;2023-07-29T00:40:37;1.23;;;1.20;;
42420;SDS011;28063;48.140;11.588;2023-07-29T00:43:04;1.40;;;1.30;;
42420;SDS011;28063;48.140;11.588;2023-07-29T00:45:30;1.90;;;1.80;;
42420;SDS011;28063;48.140;11.588;2023-07-29T00:47:57;1.63;;;1.52;;
42420;SDS011;28063;48.140;11.588;2023-07-29T00:50:23;1.42;;;1.33;;
42420;SDS011;28063;48.140;11.588;2023-07-29T00:52:50;1.13;;;1.05;;
42420;SDS011;28063;48.140;11.588;2023-07-29T00:55:16;1.40;;;1.30;;
42420;SDS011;28063;48.140;11.588;2023-07-29T00:57:42;1.42;;;1.33;;
42420;SDS011;28063;48.140;11.588;2023-07-29T01:00:13;1.55;;;1.45;;
42420;SDS011;28063;48.140;11.588;2023-07-29T01:02:39;2.03;;;1.85;;
42420;SDS011;28063;48.140;11.588;2023-07-29T01:05:05;1.60;;;1.50;;
42420;SDS011;28063;48.140;11.588;2023-07-29T01:07:33;1.50;;;1.40;;
42420;SDS011;28063;48.140;11.588;2023-07-29T01:10:07;1.75;;;1.65;;
42420;SDS011;28063;48.140;11.588;2023-07-29T01:15:25;1.52;;;1.42;;
42420;SDS011;28063;48.140;11.588;2023-07-29T01:17:52;1.30;;;1.20;;
42420;SDS011;28063;48.140;11.588;2023-07-29T01:20:20;1.60;;;1.50;;
42420;SDS011;28063;48.140;11.588;2023-07-29T01:22:46;1.92;;;1.80;;
42420;SDS011;28063;48.140;11.588;2023-07-29T01:25:16;1.58;;;1.48;;
42420;SDS011;28063;48.140;11.588;2023-07-29T01:27:43;1.60;;;1.50;;
42420;SDS011;28063;48.140;11.588;2023-07-29T01:30:09;1.38;;;1.27;;
42420;SDS011;28063;48.140;11.588;2023-07-29T01:37:33;1.40;;;1.30;;
42420;SDS011;28063;48.140;11.588;2023-07-29T01:40:00;1.30;;;1.20;;
42420;SDS011;28063;48.140;11.588;2023-07-29T01:42:26;1.10;;;1.10;;
42420;SDS011;28063;48.140;11.588;2023-07-29T01:44:53;1.33;;;1.23;;
42420;SDS011;28063;48.140;11.588;2023-07-29T01:47:20;1.02;;;1.02;;
42420;SDS011;28063;48.140;11.588;2023-07-29T01:49:47;1.08;;;1.08;;
42420;SDS011;28063;48.140;11.588;2023-07-29T01:52:13;1.10;;;1.08;;
42420;SDS011;28063;48.140;11.588;2023-07-29T01:54:39;1.20;;;1.10;;
42420;SDS011;28063;48.140;11.588;2023-07-29T01:57:05;0.82;;;0.82;;
42420;SDS011;28063;48.140;11.588;2023-07-29T01:59:32;1.20;;;1.10;;
42420;SDS011;28063;48.140;11.588;2023-07-29T02:01:58;0.90;;;0.90;;
42420;SDS011;28063;48.140;11.588;2023-07-29T02:04:24;0.85;;;0.85;;
42420;SDS011;28063;48.140;11.588;2023-07-29T02:06:50;0.80;;;0.80;;
42420;SDS011;28063;48.140;11.588;2023-07-29T02:09:16;1.23;;;1.13;;
42420;SDS011;28063;48.140;11.588;2023-07-29T02:11:42;1.17;;;1.15;;
42420;SDS011;28063;48.140;11.588;2023-07-29T02:14:08;0.70;;;0.70;;
42420;SDS011;28063;48.140;11.588;2023-07-29T02:16:34;0.70;;;0.70;;
42420;SDS011;28063;48.140;11.588;2023-07-29T02:19:01;0.65;;;0.65;;
42420;SDS011;28063;48.140;11.588;2023-07-29T02:21:28;0.77;;;0.77;;
42420;SDS011;28063;48.140;11.588;2023-07-29T02:23:54;0.82;;;0.82;;
42420;SDS011;28063;48.140;11.588;2023-07-29T02:26:21;1.02;;;1.02;;
42420;SDS011;28063;48.140;11.588;2023-07-29T02:28:48;0.90;;;0.90;;
42420;SDS011;28063;48.140;11.588;2023-07-29T02:31:21;0.90;;;0.90;;
42420;SDS011;28063;48.140;11.588;2023-07-29T02:33:47;1.10;;;1.00;;
42420;SDS011;28063;48.140;11.588;2023-07-29T02:36:23;1.23;;;1.13;;
42420;SDS011;28063;48.140;11.588;2023-07-29T02:38:51;1.30;;;1.20;;
42420;SDS011;28063;48.140;11.588;2023-07-29T02:41:20;0.98;;;0.98;;
42420;SDS011;28063;48.140;11.588;2023-07-29T02:43:51;0.90;;;0.90;;
42420;SDS011;28063;48.140;11.588;2023-07-29T02:46:17;1.00;;;1.00;;
42420;SDS011;28063;48.140;11.588;2023-07-29T02:48:44;1.25;;;1.15;;
42420;SDS011;28063;48.140;11.588;2023-07-29T02:51:10;1.17;;;1.17;;
42420;SDS011;28063;48.140;11.588;2023-07-29T02:53:36;1.20;;;1.20;;
42420;SDS011;28063;48.140;11.588;2023-07-29T02:56:06;1.42;;;1.20;;
42420;SDS011;28063;48.140;11.588;2023-07-29T02:58:34;1.40;;;1.30;;
42420;SDS011;28063;48.140;11.588;2023-07-29T03:01:01;1.50;;;1.40;;
42420;SDS011;28063;48.140;11.588;2023-07-29T03:03:28;1.55;;;1.45;;
42420;SDS011;28063;48.140;11.588;2023-07-29T03:06:04;1.83;;;1.67;;
42420;SDS011;28063;48.140;11.588;2023-07-29T03:08:30;1.40;;;1.30;;
42420;SDS011;28063;48.140;11.588;2023-07-29T03:10:56;1.67;;;1.58;;
42420;SDS011;28063;48.140;11.588;2023-07-29T03:13:23;1.50;;;1.40;;
42420;SDS011;28063;48.140;11.588;2023-07-29T03:15:49;1.23;;;1.23;;
42420;SDS011;28063;48.140;11.588;2023-07-29T03:18:15;1.10;;;1.10;;
42420;SDS011;28063;48.140;11.588;2023-07-29T03:20:41;1.38;;;1.27;;
42420;SDS011;28063;48.140;11.588;2023-07-29T03:23:07;1.40;;;1.30;;
42420;SDS011;28063;48.140;11.588;2023-07-29T03:25:33;0.90;;;0.90;;
42420;SDS011;28063;48.140;11.588;2023-07-29T03:27:59;1.20;;;1.20;;
42420;SDS011;28063;48.140;11.588;2023-07-29T03:30:26;1.20;;;1.20;;
42420;SDS011;28063;48.140;11.588;2023-07-29T03:32:52;1.45;;;1.13;;
42420;SDS011;28063;48.140;11.588;2023-07-29T03:35:18;0.95;;;0.95;;
42420;SDS011;28063;48.140;11.588;2023-07-29T03:37:44;1.20;;;1.10;;
42420;SDS011;28063;48.140;11.588;2023-07-29T03:40:10;1.58;;;1.48;;
42420;SDS011;28063;48.140;11.588;2023-07-29T03:42:37;1.25;;;1.15;;
42420;SDS011;28063;48.140;11.588;2023-07-29T03:45:03;1.02;;;1.02;;
42420;SDS011;28063;48.140;11.588;2023-07-29T03:47:29;1.55;;;1.40;;
42420;SDS011;28063;48.140;11.588;2023-07-29T03:49:55;1.30;;;1.20;;
42420;SDS011;28063;48.140;11.588;2023-07-29T03:52:21;1.30;;;1.20;;
42420;SDS011;28063;48.140;11.588;2023-07-29T03:54:47;1.15;;;1.15;;
42420;SDS011;28063;48.140;11.588;2023-07-29T03:57:14;0.98;;;0.98;;
42420;SDS011;28063;48.140;11.588;2023-07-29T03:59:40;1.05;;;1.05;;
42420;SDS011;28063;48.140;11.588;2023-07-29T04:02:06;0.88;;;0.88;;
42420;SDS011;28063;48.140;11.588;2023-07-29T04:04:32;1.20;;;1.10;;
42420;SDS011;28063;48.140;11.588;2023-07-29T04:06:58;0.90;;;0.90;;
42420;SDS011;28063;48.140;11.588;2023-07-29T04:09:24;0.98;;;0.98;;
42420;SDS011;28063;48.140;11.588;2023-07-29T04:11:50;0.88;;;0.88;;
42420;SDS011;28063;48.140;11.588;2023-07-29T04:14:16;1.13;;;1.02;;
42420;SDS011;28063;48.140;11.588;2023-07-29T04:16:42;0.98;;;0.90;;
42420;SDS011;28063;48.140;11.588;2023-07-29T04:19:09;0.88;;;0.88;;
42420;SDS011;28063;48.140;11.588;2023-07-29T04:21:35;0.98;;;0.98;;
42420;SDS011;28063;48.140;11.588;2023-07-29T04:24:01;0.77;;;0.77;;
42420;SDS011;28063;48.140;11.588;2023-07-29T04:26:28;0.80;;;0.80;;
42420;SDS011;28063;48.140;11.588;2023-07-29T04:28:54;0.85;;;0.85;;
42420;SDS011;28063;48.140;11.588;2023-07-29T04:31:20;0.98;;;0.98;;
42420;SDS011;28063;48.140;11.588;2023-07-29T04:33:46;0.77;;;0.77;;
42420;SDS011;28063;48.140;11.588;2023-07-29T04:36:12;1.00;;;1.00;;
42420;SDS011;28063;48.140;11.588;2023-07-29T04:38:38;0.70;;;0.70;;
42420;SDS011;28063;48.140;11.588;2023-07-29T04:41:04;0.98;;;0.98;;
42420;SDS011;28063;48.140;11.588;2023-07-29T04:43:32;0.95;;;0.85;;
42420;SDS011;28063;48.140;11.588;2023-07-29T04:45:58;0.80;;;0.80;;
42420;SDS011;28063;48.140;11.588;2023-07-29T04:48:24;1.10;;;1.00;;
42420;SDS011;28063;48.140;11.588;2023-07-29T04:50:50;1.38;;;1.08;;
42420;SDS011;28063;48.140;11.588;2023-07-29T04:53:17;0.90;;;0.90;;
42420;SDS011;28063;48.140;11.588;2023-07-29T04:55:43;0.73;;;0.73;;
42420;SDS011;28063;48.140;11.588;2023-07-29T04:58:09;0.77;;;0.77;;
42420;SDS011;28063;48.140;11.588;2023-07-29T05:00:35;0.80;;;0.80;;
42420;SDS011;28063;48.140;11.588;2023-07-29T05:03:01;0.80;;;0.80;;
42420;SDS011;28063;48.140;11.588;2023-07-29T05:05:28;1.20;;;1.10;;
42420;SDS011;28063;48.140;11.588;2023-07-29T05:07:54;1.20;;;1.17;;
42420;SDS011;28063;48.140;11.588;2023-07-29T05:10:20;1.13;;;1.13;;
42420;SDS011;28063;48.140;11.588;2023-07-29T05:12:46;1.17;;;1.08;;
42420;SDS011;28063;48.140;11.588;2023-07-29T05:15:12;1.60;;;1.50;;
42420;SDS011;28063;48.140;11.588;2023-07-29T05:17:38;1.15;;;1.05;;
42420;SDS011;28063;48.140;11.588;2023-07-29T05:20:04;1.20;;;1.10;;
42420;SDS011;28063;48.140;11.588;2023-07-29T05:22:31;0.80;;;0.80;;
42420;SDS011;28063;48.140;11.588;2023-07-29T05:24:57;1.05;;;1.05;;
42420;SDS011;28063;48.140;11.588;2023-07-29T05:27:23;0.90;;;0.90;;
42420;SDS011;28063;48.140;11.588;2023-07-29T05:29:49;0.85;;;0.85;;
42420;SDS011;28063;48.140;11.588;2023-07-29T05:32:15;0.90;;;0.90;;
42420;SDS011;28063;48.140;11.588;2023-07-29T05:34:41;0.70;;;0.70;;
42420;SDS011;28063;48.140;11.588;2023-07-29T05:37:07;0.70;;;0.70;;
42420;SDS011;28063;48.140;11.588;2023-07-29T05:39:33;0.90;;;0.90;;
42420;SDS011;28063;48.140;11.588;2023-07-29T05:41:59;0.80;;;0.80;;
42420;SDS011;28063;48.140;11.588;2023-07-29T05:44:27;0.70;;;0.70;;
42420;SDS011;28063;48.140;11.588;2023-07-29T05:46:55;1.10;;;0.77;;
42420;SDS011;28063;48.140;11.588;2023-07-29T05:49:22;0.77;;;0.77;;
42420;SDS011;28063;48.140;11.588;2023-07-29T05:51:48;0.50;;;0.50;;
42420;SDS011;28063;48.140;11.588;2023-07-29T05:54:15;0.95;;;0.95;;
42420;SDS011;28063;48.140;11.588;2023-07-29T05:56:41;0.75;;;0.75;;
42420;SDS011;28063;48.140;11.588;2023-07-29T05:59:07;0.85;;;0.85;;
42420;SDS011;28063;48.140;11.588;2023-07-29T06:01:33;0.93;;;0.93;;
42420;SDS011;28063;48.140;11.588;2023-07-29T06:04:00;0.90;;;0.90;;
42420;SDS011;28063;48.140;11.588;2023-07-29T06:06:26;0.82;;;0.82;;
42420;SDS011;28063;48.140;11.588;2023-07-29T06:08:52;0.80;;;0.80;;
42420;SDS011;28063;48.140;11.588;2023-07-29T06:11:18;0.75;;;0.75;;
42420;SDS011;28063;48.140;11.588;2023-07-29T06:13:47;1.35;;;1.10;;
42420;SDS011;28063;48.140;11.588;2023-07-29T06:16:13;1.88;;;0.95;;
42420;SDS011;28063;48.140;11.588;2023-07-29T06:18:39;0.82;;;0.82;;
42420;SDS011;28063;48.140;11.588;2023-07-29T06:21:05;1.38;;;1.27;;
42420;SDS011;28063;48.140;11.588;2023-07-29T06:23:33;1.40;;;1.17;;
42420;SDS011;28063;48.140;11.588;2023-07-29T06:25:59;0.73;;;0.73;;
42420;SDS011;28063;48.140;11.588;2023-07-29T06:28:25;0.88;;;0.88;;
42420;SDS011;28063;48.140;11.588;2023-07-29T06:30:52;1.30;;;1.25;;
42420;SDS011;28063;48.140;11.588;2023-07-29T06:33:18;0.93;;;0.93;;
42420;SDS011;28063;48.140;11.588;2023-07-29T06:35:44;0.70;;;0.70;;
42420;SDS011;28063;48.140;11.588;2023-07-29T06:38:10;1.05;;;1.02;;
42420;SDS011;28063;48.140;11.588;2023-07-29T06:40:36;1.15;;;1.10;;
42420;SDS011;28063;48.140;11.588;2023-07-29T06:43:02;0.95;;;0.95;;
42420;SDS011;28063;48.140;11.588;2023-07-29T06:45:31;1.38;;;1.10;;
42420;SDS011;28063;48.140;11.588;2023-07-29T06:47:57;1.65;;;1.15;;
42420;SDS011;28063;48.140;11.588;2023-07-29T06:50:23;0.90;;;0.90;;
42420;SDS011;28063;48.140;11.588;2023-07-29T06:52:49;0.75;;;0.75;;
42420;SDS011;28063;48.140;11.588;2023-07-29T06:55:15;1.00;;;1.00;;
42420;SDS011;28063;48.140;11.588;2023-07-29T06:57:41;1.20;;;1.10;;
42420;SDS011;28063;48.140;11.588;2023-07-29T07:00:08;1.80;;;1.45;;
42420;SDS011;28063;48.140;11.588;2023-07-29T07:02:34;0.93;;;0.93;;
42420;SDS011;28063;48.140;11.588;2023-07-29T07:05:00;0.90;;;0.90;;
42420;SDS011;28063;48.140;11.588;2023-07-29T07:07:26;1.10;;;1.00;;
42420;SDS011;28063;48.140;11.588;2023-07-29T07:09:52;1.05;;;1.02;;
42420;SDS011;28063;48.140;11.588;2023-07-29T07:12:19;0.77;;;0.77;;
42420;SDS011;28063;48.140;11.588;2023-07-29T07:14:45;1.00;;;1.00;;
42420;SDS011;28063;48.140;11.588;2023-07-29T07:17:11;0.80;;;0.80;;
42420;SDS011;28063;48.140;11.588;2023-07-29T07:19:37;1.10;;;1.10;;
42420;SDS011;28063;48.140;11.588;2023-07-29T07:22:03;1.05;;;1.02;;
42420;SDS011;28063;48.140;11.588;2023-07-29T07:24:29;0.82;;;0.82;;
42420;SDS011;28063;48.140;11.588;2023-07-29T07:26:55;1.15;;;1.05;;
42420;SDS011;28063;48.140;11.588;2023-07-29T07:29:21;0.95;;;0.77;;
42420;SDS011;28063;48.140;11.588;2023-07-29T07:31:51;1.10;;;1.10;;
42420;SDS011;28063;48.140;11.588;2023-07-29T07:34:17;1.02;;;1.00;;
42420;SDS011;28063;48.140;11.588;2023-07-29T07:36:43;1.27;;;1.17;;
42420;SDS011;28063;48.140;11.588;2023-07-29T07:39:09;0.90;;;0.80;;
42420;SDS011;28063;48.140;11.588;2023-07-29T07:41:36;1.27;;;1.00;;
42420;SDS011;28063;48.140;11.588;2023-07-29T07:44:02;1.10;;;1.10;;
42420;SDS011;28063;48.140;11.588;2023-07-29T07:46:28;1.95;;;1.15;;
42420;SDS011;28063;48.140;11.588;2023-07-29T07:48:54;0.80;;;0.80;;
42420;SDS011;28063;48.140;11.588;2023-07-29T07:51:20;1.23;;;0.93;;
42420;SDS011;28063;48.140;11.588;2023-07-29T07:53:46;1.30;;;1.20;;
42420;SDS011;28063;48.140;11.588;2023-07-29T07:56:12;1.20;;;1.10;;
42420;SDS011;28063;48.140;11.588;2023-07-29T07:58:39;1.40;;;1.30;;
42420;SDS011;28063;48.140;11.588;2023-07-29T08:01:05;1.00;;;1.00;;
42420;SDS011;28063;48.140;11.588;2023-07-29T08:03:32;1.38;;;0.90;;
42420;SDS011;28063;48.140;11.588;2023-07-29T08:05:58;1.50;;;1.40;;
42420;SDS011;28063;48.140;11.588;2023-07-29T08:08:25;0.90;;;0.90;;
42420;SDS011;28063;48.140;11.588;2023-07-29T08:10:52;1.10;;;1.10;;
42420;SDS011;28063;48.140;11.588;2023-07-29T08:13:20;1.08;;;1.08;;
42420;SDS011;28063;48.140;11.588;2023-07-29T08:15:49;1.45;;;1.35;;
42420;SDS011;28063;48.140;11.588;2023-07-29T08:18:18;1.40;;;1.30;;
42420;SDS011;28063;48.140;11.588;2023-07-29T08:23:20;1.60;;;1.50;;
42420;SDS011;28063;48.140;11.588;2023-07-29T08:25:55;1.00;;;1.00;;
42420;SDS011;28063;48.140;11.588;2023-07-29T08:28:26;1.88;;;1.40;;
42420;SDS011;28063;48.140;11.588;2023-07-29T08:30:53;1.38;;;1.25;;
42420;SDS011;28063;48.140;11.588;2023-07-29T08:33:19;1.85;;;1.27;;
42420;SDS011;28063;48.140;11.588;2023-07-29T08:35:45;1.23;;;1.23;;
42420;SDS011;28063;48.140;11.588;2023-07-29T08:38:11;0.90;;;0.90;;
42420;SDS011;28063;48.140;11.588;2023-07-29T08:40:37;1.30;;;1.27;;
42420;SDS011;28063;48.140;11.588;2023-07-29T08:43:07;1.85;;;1.70;;
42420;SDS011;28063;48.140;11.588;2023-07-29T08:45:35;1.70;;;1.58;;
42420;SDS011;28063;48.140;11.588;2023-07-29T08:48:07;1.58;;;1.48;;
42420;SDS011;28063;48.140;11.588;2023-07-29T08:50:34;1.50;;;1.40;;
42420;SDS011;28063;48.140;11.588;2023-07-29T08:53:02;1.85;;;1.60;;
42420;SDS011;28063;48.140;11.588;2023-07-29T08:55:29;1.75;;;1.65;;
42420;SDS011;28063;48.140;11.588;2023-07-29T08:57:56;1.50;;;1.40;;
42420;SDS011;28063;48.140;11.588;2023-07-29T09:00:22;1.90;;;1.65;;
42420;SDS011;28063;48.140;11.588;2023-07-29T09:02:48;1.70;;;1.60;;
42420;SDS011;28063;48.140;11.588;2023-07-29T09:05:15;1.83;;;1.40;;
42420;SDS011;28063;48.140;11.588;2023-07-29T09:07:41;1.40;;;1.30;;
42420;SDS011;28063;48.140;11.588;2023-07-29T09:10:10;1.40;;;1.38;;
42420;SDS011;28063;48.140;11.588;2023-07-29T09:12:36;1.48;;;1.38;;
42420;SDS011;28063;48.140;11.588;2023-07-29T09:15:02;1.45;;;1.35;;
42420;SDS011;28063;48.140;11.588;2023-07-29T09:17:31;1.50;;;1.40;;
42420;SDS011;28063;48.140;11.588;2023-07-29T09:19:57;2.00;;;1.90;;
42420;SDS011;28063;48.140;11.588;2023-07-29T09:22:23;1.70;;;1.48;;
42420;SDS011;28063;48.140;11.588;2023-07-29T09:24:50;2.65;;;1.77;;
42420;SDS011;28063;48.140;11.588;2023-07-29T09:27:24;2.22;;;1.70;;
42420;SDS011;28063;48.140;11.588;2023-07-29T09:29:52;1.85;;;1.73;;
42420;SDS011;28063;48.140;11.588;2023-07-29T09:32:20;2.45;;;1.60;;
42420;SDS011;28063;48.140;11.588;2023-07-29T09:34:47;1.98;;;1.85;;
42420;SDS011;28063;48.140;11.588;2023-07-29T09:37:17;1.80;;;1.70;;
42420;SDS011;28063;48.140;11.588;2023-07-29T09:39:46;2.00;;;1.90;;
42420;SDS011;28063;48.140;11.588;2023-07-29T09:42:17;2.00;;;1.80;;
42420;SDS011;28063;48.140;11.588;2023-07-29T09:44:44;1.83;;;1.73;;
42420;SDS011;28063;48.140;11.588;2023-07-29T09:47:17;1.70;;;1.60;;
42420;SDS011;28063;48.140;11.588;2023-07-29T09:49:44;1.75;;;1.65;;
42420;SDS011;28063;48.140;11.588;2023-07-29T09:52:10;2.03;;;1.88;;
42420;SDS011;28063;48.140;11.588;2023-07-29T09:54:36;1.95;;;1.85;;
42420;SDS011;28063;48.140;11.588;2023-07-29T09:57:03;1.90;;;1.80;;
42420;SDS011;28063;48.140;11.588;2023-07-29T09:59:33;2.20;;;2.00;;
42420;SDS011;28063;48.140;11.588;2023-07-29T10:01:59;2.08;;;1.92;;
42420;SDS011;28063;48.140;11.588;2023-07-29T10:04:25;2.00;;;1.90;;
42420;SDS011;28063;48.140;11.588;2023-07-29T10:06:52;1.90;;;1.80;;
42420;SDS011;28063;48.140;11.588;2023-07-29T10:09:18;1.83;;;1.70;;
42420;SDS011;28063;48.140;11.588;2023-07-29T10:11:46;1.85;;;1.75;;
42420;SDS011;28063;48.140;11.588;2023-07-29T10:14:14;2.22;;;2.03;;
42420;SDS011;28063;48.140;11.588;2023-07-29T10:16:41;1.83;;;1.73;;
42420;SDS011;28063;48.140;11.588;2023-07-29T10:19:10;1.95;;;1.85;;
42420;SDS011;28063;48.140;11.588;2023-07-29T10:21:38;2.20;;;2.00;;
42420;SDS011;28063;48.140;11.588;2023-07-29T10:24:05;2.40;;;2.20;;
42420;SDS011;28063;48.140;11.588;2023-07-29T10:26:32;2.22;;;2.13;;
42420;SDS011;28063;48.140;11.588;2023-07-29T10:29:02;2.28;;;2.10;;
42420;SDS011;28063;48.140;11.588;2023-07-29T10:31:30;2.67;;;2.47;;
42420;SDS011;28063;48.140;11.588;2023-07-29T10:33:57;3.13;;;2.85;;
42420;SDS011;28063;48.140;11.588;2023-07-29T10:36:23;2.72;;;2.50;;
42420;SDS011;28063;48.140;11.588;2023-07-29T10:38:50;2.28;;;2.08;;
42420;SDS011;28063;48.140;11.588;2023-07-29T10:41:16;2.42;;;2.22;;
42420;SDS011;28063;48.140;11.588;2023-07-29T10:43:42;2.72;;;2.25;;
42420;SDS011;28063;48.140;11.588;2023-07-29T10:46:18;2.28;;;2.13;;
42420;SDS011;28063;48.140;11.588;2023-07-29T10:53:58;2.20;;;2.00;;
42420;SDS011;28063;48.140;11.588;2023-07-29T10:56:31;2.45;;;2.33;;
42420;SDS011;28063;48.140;11.588;2023-07-29T11:01:42;3.03;;;2.83;;
42420;SDS011;28063;48.140;11.588;2023-07-29T11:07:01;4.18;;;2.80;;
42420;SDS011;28063;48.140;11.588;2023-07-29T11:15:00;2.70;;;2.47;;
42420;SDS011;28063;48.140;11.588;2023-07-29T11:17:29;3.05;;;2.80;;
42420;SDS011;28063;48.140;11.588;2023-07-29T11:19:56;3.03;;;2.83;;
42420;SDS011;28063;48.140;11.588;2023-07-29T11:22:23;2.63;;;2.42;;
42420;SDS011;28063;48.140;11.588;2023-07-29T11:24:49;2.20;;;2.00;;
42420;SDS011;28063;48.140;11.588;2023-07-29T11:27:15;1.95;;;1.65;;
42420;SDS011;28063;48.140;11.588;2023-07-29T11:29:41;2.00;;;1.80;;
42420;SDS011;28063;48.140;11.588;2023-07-29T11:32:09;1.60;;;1.50;;
42420;SDS011;28063;48.140;11.588;2023-07-29T11:34:35;1.67;;;1.58;;
42420;SDS011;28063;48.140;11.588;2023-07-29T11:37:01;2.20;;;2.00;;
42420;SDS011;28063;48.140;11.588;2023-07-29T11:39:27;5.10;;;2.10;;
42420;SDS011;28063;48.140;11.588;2023-07-29T11:41:53;2.40;;;2.20;;
42420;SDS011;28063;48.140;11.588;2023-07-29T11:44:19;2.00;;;1.90;;
42420;SDS011;28063;48.140;11.588;2023-07-29T11:46:48;1.80;;;1.70;;
42420;SDS011;28063;48.140;11.588;2023-07-29T11:49:33;2.22;;;1.77;;
42420;SDS011;28063;48.140;11.588;2023-07-29T11:52:00;3.67;;;2.00;;
42420;SDS011;28063;48.140;11.588;2023-07-29T11:54:26;2.03;;;1.92;;
42420;SDS011;28063;48.140;11.588;2023-07-29T11:56:52;2.33;;;2.17;;
42420;SDS011;28063;48.140;11.588;2023-07-29T11:59:19;2.30;;;2.10;;
42420;SDS011;28063;48.140;11.588;2023-07-29T12:01:45;2.20;;;2.00;;
42420;SDS011;28063;48.140;11.588;2023-07-29T12:04:11;2.45;;;2.25;;
42420;SDS011;28063;48.140;11.588;2023-07-29T12:06:38;2.25;;;2.08;;
42420;SDS011;28063;48.140;11.588;2023-07-29T12:09:05;2.10;;;2.00;;
42420;SDS011;28063;48.140;11.588;2023-07-29T12:11:31;1.90;;;1.80;;
42420;SDS011;28063;48.140;11.588;2023-07-29T12:13:59;2.33;;;2.13;;
42420;SDS011;28063;48.140;11.588;2023-07-29T12:16:25;3.35;;;2.20;;
42420;SDS011;28063;48.140;11.588;2023-07-29T12:18:54;1.98;;;1.88;;
42420;SDS011;28063;48.140;11.588;2023-07-29T12:21:21;2.38;;;2.17;;
42420;SDS011;28063;48.140;11.588;2023-07-29T12:23:47;2.00;;;1.90;;
42420;SDS011;28063;48.140;11.588;2023-07-29T12:26:16;2.10;;;2.00;;
42420;SDS011;28063;48.140;11.588;2023-07-29T12:28:45;2.10;;;2.00;;
42420;SDS011;28063;48.140;11.588;2023-07-29T12:31:11;2.03;;;1.92;;
42420;SDS011;28063;48.140;11.588;2023-07-29T12:33:37;2.00;;;1.90;;
42420;SDS011;28063;48.140;11.588;2023-07-29T12:36:04;2.42;;;2.33;;
42420;SDS011;28063;48.140;11.588;2023-07-29T12:38:30;2.25;;;2.15;;
42420;SDS011;28063;48.140;11.588;2023-07-29T12:40:56;2.60;;;2.40;;
42420;SDS011;28063;48.140;11.588;2023-07-29T12:43:22;2.70;;;2.50;;
42420;SDS011;28063;48.140;11.588;2023-07-29T12:45:49;4.22;;;2.35;;
42420;SDS011;28063;48.140;11.588;2023-07-29T12:48:15;2.28;;;2.17;;
42420;SDS011;28063;48.140;11.588;2023-07-29T12:50:41;2.13;;;2.00;;
42420;SDS011;28063;48.140;11.588;2023-07-29T12:53:07;2.65;;;2.45;;
42420;SDS011;28063;48.140;11.588;2023-07-29T12:55:36;2.88;;;2.58;;
42420;SDS011;28063;48.140;11.588;2023-07-29T12:58:03;16.90;;;7.60;;
42420;SDS011;28063;48.140;11.588;2023-07-29T13:00:29;8.63;;;5.35;;
42420;SDS011;28063;48.140;11.588;2023-07-29T13:02:55;5.10;;;3.78;;
42420;SDS011;28063;48.140;11.588;2023-07-29T13:05:21;4.57;;;3.70;;
42420;SDS011;28063;48.140;11.588;2023-07-29T13:07:47;3.42;;;3.13;;
42420;SDS011;28063;48.140;11.588;2023-07-29T13:10:13;3.20;;;2.95;;
42420;SDS011;28063;48.140;11.588;2023-07-29T13:12:39;3.30;;;3.00;;
42420;SDS011;28063;48.140;11.588;2023-07-29T13:15:05;3.20;;;2.97;;
42420;SDS011;28063;48.140;11.588;2023-07-29T13:17:31;2.40;;;2.20;;
42420;SDS011;28063;48.140;11.588;2023-07-29T13:19:58;2.00;;;1.90;;
42420;SDS011;28063;48.140;11.588;2023-07-29T13:22:23;2.30;;;2.17;;
42420;SDS011;28063;48.140;11.588;2023-07-29T13:24:49;1.90;;;1.80;;
42420;SDS011;28063;48.140;11.588;2023-07-29T13:27:14;1.73;;;1.63;;
42420;SDS011;28063;48.140;11.588;2023-07-29T13:29:40;1.70;;;1.60;;
42420;SDS011;28063;48.140;11.588;2023-07-29T13:38:28;1.00;;;1.00;;
42420;SDS011;28063;48.140;11.588;2023-07-29T13:40:54;0.88;;;0.88;;
42420;SDS011;28063;48.140;11.588;2023-07-29T13:43:20;0.70;;;0.70;;
42420;SDS011;28063;48.140;11.588;2023-07-29T13:45:48;0.80;;;0.80;;
42420;SDS011;28063;48.140;11.588;2023-07-29T13:48:15;0.63;;;0.63;;
42420;SDS011;28063;48.140;11.588;2023-07-29T13:50:41;0.73;;;0.73;;
42420;SDS011;28063;48.140;11.588;2023-07-29T13:53:08;0.45;;;0.45;;
42420;SDS011;28063;48.140;11.588;2023-07-29T13:55:34;0.40;;;0.40;;
42420;SDS011;28063;48.140;11.588;2023-07-29T13:58:00;0.40;;;0.40;;
42420;SDS011;28063;48.140;11.588;2023-07-29T14:00:25;0.30;;;0.30;;
42420;SDS011;28063;48.140;11.588;2023-07-29T14:02:51;0.40;;;0.40;;
42420;SDS011;28063;48.140;11.588;2023-07-29T14:05:17;0.30;;;0.30;;
42420;SDS011;28063;48.140;11.588;2023-07-29T14:07:42;0.30;;;0.30;;
42420;SDS011;28063;48.140;11.588;2023-07-29T14:10:08;0.30;;;0.30;;
42420;SDS011;28063;48.140;11.588;2023-07-29T14:12:34;0.30;;;0.30;;
42420;SDS011;28063;48.140;11.588;2023-07-29T14:15:00;0.20;;;0.20;;
42420;SDS011;28063;48.140;11.588;2023-07-29T14:17:36;0.10;;;0.10;;
42420;SDS011;28063;48.140;11.588;2023-07-29T14:20:02;0.20;;;0.20;;
42420;SDS011;28063;48.140;11.588;2023-07-29T14:22:29;0.20;;;0.20;;
42420;SDS011;28063;48.140;11.588;2023-07-29T14:24:55;0.20;;;0.20;;
42420;SDS011;28063;48.140;11.588;2023-07-29T14:27:21;0.10;;;0.10;;
42420;SDS011;28063;48.140;11.588;2023-07-29T14:29:46;0.10;;;0.10;;
42420;SDS011;28063;48.140;11.588;2023-07-29T14:32:12;0.10;;;0.10;;
42420;SDS011;28063;48.140;11.588;2023-07-29T14:34:38;0.10;;;0.10;;
42420;SDS011;28063;48.140;11.588;2023-07-29T14:37:03;0.10;;;0.10;;
42420;SDS011;28063;48.140;11.588;2023-07-29T14:39:33;0.10;;;0.10;;
42420;SDS011;28063;48.140;11.588;2023-07-29T14:41:58;0.17;;;0.17;;
42420;SDS011;28063;48.140;11.588;2023-07-29T14:44:24;0.00;;;0.00;;
42420;SDS011;28063;48.140;11.588;2023-07-29T14:46:50;0.10;;;0.10;;
42420;SDS011;28063;48.140;11.588;2023-07-29T14:49:15;0.00;;;0.00;;
42420;SDS011;28063;48.140;11.588;2023-07-29T14:51:41;0.10;;;0.10;;
42420;SDS011;28063;48.140;11.588;2023-07-29T14:54:10;0.10;;;0.10;;
42420;SDS011;28063;48.140;11.588;2023-07-29T14:56:35;0.10;;;0.10;;
42420;SDS011;28063;48.140;11.588;2023-07-29T14:59:01;0.10;;;0.10;;
42420;SDS011;28063;48.140;11.588;2023-07-29T15:01:27;0.10;;;0.10;;
42420;SDS011;28063;48.140;11.588;2023-07-29T15:03:52;0.10;;;0.10;;